createdAt,value
2019-03-30T00:00:34.942Z,935.86
2019-03-30T00:01:34.891Z,935.83
2019-03-30T00:02:35.750Z,935.88
2019-03-30T00:03:34.789Z,935.90
2019-03-30T00:04:34.743Z,935.90
2019-03-30T00:05:34.685Z,935.90
2019-03-30T00:06:34.637Z,935.91
2019-03-30T00:07:34.602Z,935.91
2019-03-30T00:08:34.551Z,935.95
2019-03-30T00:09:34.496Z,935.91
2019-03-30T00:10:34.449Z,935.95
2019-03-30T00:11:34.411Z,935.95
2019-03-30T00:12:34.380Z,935.88
2019-03-30T00:13:34.322Z,935.91
2019-03-30T00:14:34.284Z,935.87
2019-03-30T00:15:34.237Z,935.91
2019-03-30T00:16:34.179Z,935.93
2019-03-30T00:17:34.126Z,935.90
2019-03-30T00:18:34.076Z,935.97
2019-03-30T00:19:35.044Z,935.87
2019-03-30T00:20:33.995Z,935.89
2019-03-30T00:21:33.957Z,935.95
2019-03-30T00:22:33.911Z,935.88
2019-03-30T00:23:33.843Z,935.93
2019-03-30T00:24:33.817Z,935.93
2019-03-30T00:25:33.750Z,935.93
2019-03-30T00:26:33.703Z,935.93
2019-03-30T00:27:33.669Z,935.97
2019-03-30T00:28:33.611Z,936.00
2019-03-30T00:29:33.660Z,936.00
2019-03-30T00:30:33.516Z,935.91
2019-03-30T00:31:33.471Z,935.89
2019-03-30T00:32:33.431Z,935.89
2019-03-30T00:33:33.397Z,935.88
2019-03-30T00:34:33.343Z,935.90
2019-03-30T00:35:33.304Z,935.90
2019-03-30T00:36:33.244Z,935.91
2019-03-30T00:37:33.210Z,935.91
2019-03-30T00:38:33.155Z,935.91
2019-03-30T00:39:33.095Z,935.92
2019-03-30T00:40:33.049Z,935.87
2019-03-30T00:41:33.015Z,935.87
2019-03-30T00:42:32.955Z,935.87
2019-03-30T00:43:32.930Z,935.83
2019-03-30T00:44:32.874Z,935.82
2019-03-30T00:45:32.838Z,935.85
2019-03-30T00:46:32.782Z,935.81
2019-03-30T00:47:32.743Z,935.80
2019-03-30T00:48:32.687Z,935.85
2019-03-30T00:49:32.649Z,935.84
2019-03-30T00:50:32.583Z,935.87
2019-03-30T00:51:32.548Z,935.81
2019-03-30T00:52:32.512Z,935.84
2019-03-30T00:53:32.441Z,935.86
2019-03-30T00:54:32.402Z,935.85
2019-03-30T00:55:32.347Z,935.83
2019-03-30T00:56:32.324Z,935.81
2019-03-30T00:57:32.262Z,935.82
2019-03-30T00:58:32.229Z,935.80
2019-03-30T00:59:32.182Z,935.84
2019-03-30T01:00:32.127Z,935.79
2019-03-30T01:01:32.067Z,935.73
2019-03-30T01:02:32.041Z,935.74
2019-03-30T01:03:31.986Z,935.72
2019-03-30T01:04:31.940Z,935.78
2019-03-30T01:05:31.887Z,935.69
2019-03-30T01:06:31.832Z,935.68
2019-03-30T01:07:31.794Z,935.64
2019-03-30T01:08:31.749Z,935.61
2019-03-30T01:09:31.713Z,935.64
2019-03-30T01:10:31.653Z,935.60
2019-03-30T01:11:31.598Z,935.58
2019-03-30T01:12:31.551Z,935.63
2019-03-30T01:13:31.518Z,935.68
2019-03-30T01:14:31.470Z,935.63
2019-03-30T01:15:31.411Z,935.60
2019-03-30T01:16:31.372Z,935.62
2019-03-30T01:17:31.318Z,935.58
2019-03-30T01:18:31.279Z,935.56
2019-03-30T01:19:31.223Z,935.60
2019-03-30T01:20:31.189Z,935.59
2019-03-30T01:21:31.139Z,935.57
2019-03-30T01:22:31.096Z,935.58
2019-03-30T01:23:31.036Z,935.64
2019-03-30T01:24:30.998Z,935.59
2019-03-30T01:25:30.959Z,935.64
2019-03-30T01:26:30.917Z,935.61
2019-03-30T01:27:30.857Z,935.56
2019-03-30T01:28:30.802Z,935.62
2019-03-30T01:29:30.776Z,935.56
2019-03-30T01:30:30.717Z,935.49
2019-03-30T01:31:30.670Z,935.52
2019-03-30T01:32:30.628Z,935.50
2019-03-30T01:33:30.578Z,935.50
2019-03-30T01:34:30.543Z,935.47
2019-03-30T01:35:30.483Z,935.54
2019-03-30T01:36:30.429Z,935.54
2019-03-30T01:37:30.389Z,935.50
2019-03-30T01:38:30.334Z,935.52
2019-03-30T01:39:30.302Z,935.55
2019-03-30T01:40:30.262Z,935.56
2019-03-30T01:41:30.202Z,935.51
2019-03-30T01:42:30.158Z,935.51
2019-03-30T01:43:30.109Z,935.51
2019-03-30T01:44:30.065Z,935.47
2019-03-30T01:45:30.028Z,935.50
2019-03-30T01:46:29.981Z,935.48
2019-03-30T01:47:29.928Z,935.49
2019-03-30T01:48:29.875Z,935.43
2019-03-30T01:49:29.832Z,935.45
2019-03-30T01:50:29.794Z,935.47
2019-03-30T01:51:29.748Z,935.46
2019-03-30T01:52:29.692Z,935.45
2019-03-30T01:53:29.654Z,935.43
2019-03-30T01:54:29.599Z,935.47
2019-03-30T01:55:29.563Z,935.46
2019-03-30T01:56:29.501Z,935.48
2019-03-30T01:57:29.467Z,935.44
2019-03-30T01:58:29.407Z,935.46
2019-03-30T01:59:29.365Z,935.33
2019-03-30T02:00:29.328Z,935.34
2019-03-30T02:01:29.272Z,935.37
2019-03-30T02:02:29.212Z,935.36
2019-03-30T02:03:29.165Z,935.39
2019-03-30T02:04:29.128Z,935.34
2019-03-30T02:05:29.080Z,935.39
2019-03-30T02:06:29.033Z,935.37
2019-03-30T02:07:28.991Z,935.39
2019-03-30T02:08:28.945Z,935.37
2019-03-30T02:09:28.886Z,935.29
2019-03-30T02:10:28.838Z,935.31
2019-03-30T02:11:28.837Z,935.29
2019-03-30T02:12:28.767Z,935.30
2019-03-30T02:13:28.710Z,935.26
2019-03-30T02:14:28.659Z,935.25
2019-03-30T02:15:28.604Z,935.26
2019-03-30T02:16:28.571Z,935.24
2019-03-30T02:17:28.511Z,935.22
2019-03-30T02:18:28.464Z,935.21
2019-03-30T02:19:28.416Z,935.22
2019-03-30T02:20:31.001Z,935.18
2019-03-30T02:21:28.347Z,935.23
2019-03-30T02:22:28.294Z,935.24
2019-03-30T02:23:28.250Z,935.16
2019-03-30T02:24:28.195Z,935.17
2019-03-30T02:25:28.144Z,935.17
2019-03-30T02:26:28.101Z,935.17
2019-03-30T02:27:28.042Z,935.15
2019-03-30T02:28:28.114Z,935.18
2019-03-30T02:29:27.957Z,935.20
2019-03-30T02:30:27.916Z,935.16
2019-03-30T02:31:27.856Z,935.20
2019-03-30T02:32:27.829Z,935.13
2019-03-30T02:33:27.776Z,935.17
2019-03-30T02:34:27.727Z,935.18
2019-03-30T02:35:27.677Z,935.19
2019-03-30T02:36:27.621Z,935.18
2019-03-30T02:37:27.595Z,935.19
2019-03-30T02:38:27.551Z,935.18
2019-03-30T02:39:27.503Z,935.15
2019-03-30T02:40:27.455Z,935.17
2019-03-30T02:41:27.412Z,935.15
2019-03-30T02:42:27.367Z,935.15
2019-03-30T02:43:27.306Z,935.14
2019-03-30T02:44:27.275Z,935.16
2019-03-30T02:45:27.209Z,935.11
2019-03-30T02:46:27.174Z,935.15
2019-03-30T02:47:27.116Z,935.17
2019-03-30T02:48:27.058Z,935.14
2019-03-30T02:49:27.013Z,935.16
2019-03-30T02:50:26.978Z,935.12
2019-03-30T02:51:26.925Z,935.22
2019-03-30T02:52:26.880Z,935.26
2019-03-30T02:53:26.825Z,935.13
2019-03-30T02:54:26.791Z,935.16
2019-03-30T02:55:26.753Z,935.18
2019-03-30T02:56:26.697Z,935.16
2019-03-30T02:57:26.651Z,935.22
2019-03-30T02:58:26.591Z,935.14
2019-03-30T02:59:26.571Z,935.14
2019-03-30T03:00:26.511Z,935.17
2019-03-30T03:01:26.458Z,935.11
2019-03-30T03:02:26.405Z,935.15
2019-03-30T03:03:26.384Z,935.12
2019-03-30T03:04:26.319Z,935.14
2019-03-30T03:05:26.283Z,935.14
2019-03-30T03:06:26.225Z,935.07
2019-03-30T03:07:26.184Z,935.03
2019-03-30T03:08:26.132Z,935.04
2019-03-30T03:09:26.091Z,935.00
2019-03-30T03:10:26.057Z,934.99
2019-03-30T03:11:25.995Z,934.97
2019-03-30T03:12:25.949Z,934.93
2019-03-30T03:13:25.888Z,934.92
2019-03-30T03:14:25.842Z,934.92
2019-03-30T03:15:25.803Z,934.87
2019-03-30T03:16:27.615Z,934.83
2019-03-30T03:17:25.724Z,934.89
2019-03-30T03:18:25.655Z,934.86
2019-03-30T03:19:25.622Z,934.95
2019-03-30T03:20:25.574Z,934.85
2019-03-30T03:21:25.527Z,934.88
2019-03-30T03:22:25.489Z,934.91
2019-03-30T03:23:25.434Z,934.88
2019-03-30T03:24:25.427Z,934.85
2019-03-30T03:25:25.340Z,934.87
2019-03-30T03:26:25.293Z,934.84
2019-03-30T03:27:25.241Z,934.89
2019-03-30T03:28:25.189Z,934.79
2019-03-30T03:29:25.151Z,934.82
2019-03-30T03:30:25.104Z,934.86
2019-03-30T03:31:25.057Z,934.84
2019-03-30T03:32:25.221Z,934.84
2019-03-30T03:33:24.962Z,934.86
2019-03-30T03:34:24.996Z,934.89
2019-03-30T03:35:24.864Z,934.85
2019-03-30T03:36:24.836Z,934.89
2019-03-30T03:37:43.253Z,934.87
2019-03-30T03:38:24.731Z,934.87
2019-03-30T03:39:24.687Z,934.86
2019-03-30T03:40:24.639Z,934.84
2019-03-30T03:41:24.586Z,934.85
2019-03-30T03:42:24.529Z,934.79
2019-03-30T03:43:24.497Z,934.81
2019-03-30T03:44:24.448Z,934.83
2019-03-30T03:45:24.391Z,934.87
2019-03-30T03:46:24.383Z,934.83
2019-03-30T03:47:24.299Z,934.85
2019-03-30T03:48:24.254Z,934.86
2019-03-30T03:49:24.223Z,934.83
2019-03-30T03:50:24.163Z,934.83
2019-03-30T03:51:26.280Z,934.83
2019-03-30T03:52:24.074Z,934.82
2019-03-30T03:53:24.014Z,934.80
2019-03-30T03:54:23.977Z,934.78
2019-03-30T03:55:23.921Z,934.79
2019-03-30T03:56:23.901Z,934.78
2019-03-30T03:57:23.828Z,934.80
2019-03-30T03:58:23.793Z,934.80
2019-03-30T03:59:23.746Z,934.82
2019-03-30T04:00:23.697Z,934.86
2019-03-30T04:01:23.654Z,934.76
2019-03-30T04:02:23.615Z,934.73
2019-03-30T04:03:23.559Z,934.72
2019-03-30T04:04:23.499Z,934.73
2019-03-30T04:05:23.467Z,934.68
2019-03-30T04:06:23.416Z,934.70
2019-03-30T04:07:23.389Z,934.66
2019-03-30T04:08:23.334Z,934.68
2019-03-30T04:09:23.274Z,934.68
2019-03-30T04:10:23.219Z,934.70
2019-03-30T04:11:23.192Z,934.63
2019-03-30T04:12:23.136Z,934.66
2019-03-30T04:13:23.098Z,934.60
2019-03-30T04:14:23.029Z,934.59
2019-03-30T04:15:22.991Z,934.55
2019-03-30T04:16:22.946Z,934.56
2019-03-30T04:17:22.903Z,934.55
2019-03-30T04:18:22.842Z,934.54
2019-03-30T04:19:22.809Z,934.58
2019-03-30T04:20:22.758Z,934.55
2019-03-30T04:21:22.722Z,934.61
2019-03-30T04:22:22.656Z,934.49
2019-03-30T04:23:22.622Z,934.46
2019-03-30T04:24:22.565Z,934.49
2019-03-30T04:25:22.518Z,934.52
2019-03-30T04:26:22.475Z,934.52
2019-03-30T04:27:22.455Z,934.54
2019-03-30T04:28:22.374Z,934.52
2019-03-30T04:29:22.340Z,934.57
2019-03-30T04:30:22.503Z,934.61
2019-03-30T04:31:22.261Z,934.58
2019-03-30T04:32:22.232Z,934.58
2019-03-30T04:33:22.148Z,934.59
2019-03-30T04:34:22.101Z,934.56
2019-03-30T04:35:22.053Z,934.55
2019-03-30T04:36:22.019Z,934.52
2019-03-30T04:37:21.960Z,934.51
2019-03-30T04:38:21.913Z,934.47
2019-03-30T04:39:21.879Z,934.47
2019-03-30T04:40:21.811Z,934.48
2019-03-30T04:41:21.763Z,934.43
2019-03-30T04:42:21.732Z,934.47
2019-03-30T04:43:21.686Z,934.45
2019-03-30T04:44:21.633Z,934.45
2019-03-30T04:45:21.597Z,934.49
2019-03-30T04:46:21.529Z,934.47
2019-03-30T04:47:21.493Z,934.49
2019-03-30T04:48:21.449Z,934.47
2019-03-30T04:49:21.410Z,934.45
2019-03-30T04:50:21.350Z,934.43
2019-03-30T04:51:21.294Z,934.44
2019-03-30T04:52:21.256Z,934.41
2019-03-30T04:53:21.225Z,934.39
2019-03-30T04:54:21.162Z,934.40
2019-03-30T04:55:21.128Z,934.37
2019-03-30T04:56:21.072Z,934.37
2019-03-30T04:57:21.034Z,934.41
2019-03-30T04:58:20.968Z,934.41
2019-03-30T04:59:20.940Z,934.33
2019-03-30T05:00:20.881Z,934.34
2019-03-30T05:01:20.838Z,934.33
2019-03-30T05:02:20.787Z,934.34
2019-03-30T05:03:20.754Z,934.25
2019-03-30T05:04:20.706Z,934.33
2019-03-30T05:05:20.651Z,934.29
2019-03-30T05:06:20.618Z,934.28
2019-03-30T05:07:20.554Z,934.24
2019-03-30T05:08:20.513Z,934.20
2019-03-30T05:09:20.459Z,934.18
2019-03-30T05:10:20.425Z,934.15
2019-03-30T05:11:20.362Z,934.17
2019-03-30T05:12:21.429Z,934.19
2019-03-30T05:13:20.284Z,934.16
2019-03-30T05:14:20.239Z,934.19
2019-03-30T05:15:20.171Z,934.16
2019-03-30T05:16:20.131Z,934.19
2019-03-30T05:17:20.086Z,934.23
2019-03-30T05:18:20.032Z,934.21
2019-03-30T05:19:19.994Z,934.15
2019-03-30T05:20:19.958Z,934.15
2019-03-30T05:21:19.911Z,934.15
2019-03-30T05:22:19.849Z,934.19
2019-03-30T05:23:19.806Z,934.15
2019-03-30T05:24:19.771Z,934.21
2019-03-30T05:25:19.712Z,934.20
2019-03-30T05:26:19.658Z,934.20
2019-03-30T05:27:19.615Z,934.18
2019-03-30T05:28:19.570Z,934.19
2019-03-30T05:29:19.534Z,934.22
2019-03-30T05:30:19.490Z,934.16
2019-03-30T05:31:19.441Z,934.19
2019-03-30T05:32:19.372Z,934.17
2019-03-30T05:33:19.327Z,934.17
2019-03-30T05:34:19.294Z,934.16
2019-03-30T05:35:19.253Z,934.16
2019-03-30T05:36:19.185Z,934.21
2019-03-30T05:37:19.139Z,934.22
2019-03-30T05:38:19.091Z,934.18
2019-03-30T05:39:19.058Z,934.17
2019-03-30T05:40:19.011Z,934.21
2019-03-30T05:41:18.950Z,934.19
2019-03-30T05:42:18.925Z,934.19
2019-03-30T05:43:18.856Z,934.21
2019-03-30T05:44:18.822Z,934.25
2019-03-30T05:45:18.776Z,934.20
2019-03-30T05:46:18.724Z,934.22
2019-03-30T05:47:18.669Z,934.22
2019-03-30T05:48:18.643Z,934.24
2019-03-30T05:49:18.576Z,934.24
2019-03-30T05:50:18.550Z,934.23
2019-03-30T05:51:18.496Z,934.22
2019-03-30T05:52:26.500Z,934.21
2019-03-30T05:53:18.397Z,934.18
2019-03-30T05:54:18.343Z,934.20
2019-03-30T05:55:18.316Z,934.18
2019-03-30T05:56:18.251Z,934.14
2019-03-30T05:57:18.213Z,934.16
2019-03-30T05:58:18.155Z,934.18
2019-03-30T05:59:18.128Z,934.19
2019-03-30T06:00:18.060Z,934.14
2019-03-30T06:01:18.026Z,934.13
2019-03-30T06:02:17.976Z,934.12
2019-03-30T06:03:17.933Z,934.13
2019-03-30T06:04:17.886Z,934.12
2019-03-30T06:05:18.028Z,934.14
2019-03-30T06:06:17.801Z,934.14
2019-03-30T06:07:17.733Z,934.12
2019-03-30T06:08:17.694Z,934.14
2019-03-30T06:09:17.661Z,934.13
2019-03-30T06:10:17.597Z,934.13
2019-03-30T06:11:17.549Z,934.11
2019-03-30T06:12:17.507Z,934.06
2019-03-30T06:13:17.473Z,934.07
2019-03-30T06:14:17.414Z,934.06
2019-03-30T06:15:17.358Z,934.08
2019-03-30T06:16:17.324Z,934.09
2019-03-30T06:17:17.286Z,934.10
2019-03-30T06:18:17.226Z,934.09
2019-03-30T06:19:17.173Z,934.11
2019-03-30T06:20:17.134Z,934.10
2019-03-30T06:21:17.077Z,934.11
2019-03-30T06:22:17.030Z,934.05
2019-03-30T06:23:17.005Z,934.05
2019-03-30T06:24:16.958Z,934.03
2019-03-30T06:25:16.911Z,934.04
2019-03-30T06:26:16.843Z,934.02
2019-03-30T06:27:16.817Z,934.10
2019-03-30T06:28:16.748Z,934.08
2019-03-30T06:29:16.711Z,934.10
2019-03-30T06:30:16.665Z,934.09
2019-03-30T06:31:16.616Z,934.10
2019-03-30T06:32:16.561Z,934.07
2019-03-30T06:33:16.530Z,934.07
2019-03-30T06:34:16.480Z,934.03
2019-03-30T06:35:16.443Z,934.03
2019-03-30T06:36:16.388Z,934.03
2019-03-30T06:37:16.326Z,934.03
2019-03-30T06:38:16.288Z,934.04
2019-03-30T06:39:16.241Z,934.07
2019-03-30T06:40:16.200Z,934.08
2019-03-30T06:41:16.148Z,934.09
2019-03-30T06:42:16.106Z,934.04
2019-03-30T06:43:16.058Z,934.08
2019-03-30T06:44:15.998Z,934.10
2019-03-30T06:45:15.972Z,934.11
2019-03-30T06:46:15.913Z,934.11
2019-03-30T06:47:15.878Z,934.16
2019-03-30T06:48:15.823Z,934.15
2019-03-30T06:49:15.777Z,934.12
2019-03-30T06:50:15.716Z,934.16
2019-03-30T06:51:15.684Z,934.12
2019-03-30T06:52:15.645Z,934.10
2019-03-30T06:53:15.599Z,934.10
2019-03-30T06:54:15.622Z,934.10
2019-03-30T06:55:15.481Z,934.08
2019-03-30T06:56:15.434Z,934.06
2019-03-30T06:57:15.399Z,934.06
2019-03-30T06:58:15.340Z,934.00
2019-03-30T06:59:15.293Z,934.05
2019-03-30T07:00:15.262Z,934.05
2019-03-30T07:01:15.216Z,934.03
2019-03-30T07:02:15.176Z,933.98
2019-03-30T07:03:15.125Z,933.95
2019-03-30T07:04:15.085Z,933.96
2019-03-30T07:05:15.025Z,933.94
2019-03-30T07:06:14.979Z,933.95
2019-03-30T07:07:14.931Z,933.95
2019-03-30T07:08:14.900Z,933.98
2019-03-30T07:09:14.837Z,933.93
2019-03-30T07:10:14.785Z,933.98
2019-03-30T07:11:21.018Z,933.96
2019-03-30T07:12:14.705Z,933.98
2019-03-30T07:13:14.636Z,933.96
2019-03-30T07:14:14.590Z,933.96
2019-03-30T07:15:14.564Z,934.01
2019-03-30T07:16:14.497Z,933.99
2019-03-30T07:17:14.457Z,934.01
2019-03-30T07:18:14.415Z,934.03
2019-03-30T07:19:14.376Z,934.01
2019-03-30T07:20:14.329Z,934.02
2019-03-30T07:21:14.260Z,933.96
2019-03-30T07:22:14.238Z,934.01
2019-03-30T07:23:14.179Z,934.02
2019-03-30T07:24:14.120Z,934.02
2019-03-30T07:25:14.081Z,934.03
2019-03-30T07:26:14.025Z,934.01
2019-03-30T07:27:14.001Z,934.02
2019-03-30T07:28:13.945Z,934.03
2019-03-30T07:29:13.894Z,934.01
2019-03-30T07:30:13.846Z,934.02
2019-03-30T07:31:13.807Z,934.00
2019-03-30T07:32:13.765Z,934.03
2019-03-30T07:33:13.697Z,934.00
2019-03-30T07:34:13.671Z,934.02
2019-03-30T07:35:13.611Z,934.03
2019-03-30T07:36:13.564Z,934.04
2019-03-30T07:37:13.521Z,934.02
2019-03-30T07:38:13.477Z,934.05
2019-03-30T07:39:13.424Z,934.04
2019-03-30T07:40:13.581Z,934.07
2019-03-30T07:41:13.329Z,934.12
2019-03-30T07:42:13.287Z,934.10
2019-03-30T07:43:13.234Z,934.05
2019-03-30T07:44:13.201Z,934.02
2019-03-30T07:45:13.136Z,934.06
2019-03-30T07:46:13.109Z,934.10
2019-03-30T07:47:13.039Z,934.09
2019-03-30T07:48:13.005Z,934.12
2019-03-30T07:49:12.944Z,934.15
2019-03-30T07:50:17.277Z,934.11
2019-03-30T07:51:12.866Z,934.16
2019-03-30T07:52:12.825Z,934.14
2019-03-30T07:53:25.726Z,934.16
2019-03-30T07:54:12.718Z,934.18
2019-03-30T07:55:12.676Z,934.19
2019-03-30T07:56:12.636Z,934.18
2019-03-30T07:57:17.099Z,934.16
2019-03-30T07:58:12.531Z,934.21
2019-03-30T07:59:12.474Z,934.20
2019-03-30T08:00:12.440Z,934.21
2019-03-30T08:01:12.393Z,934.17
2019-03-30T08:02:12.354Z,934.22
2019-03-30T08:03:12.307Z,934.23
2019-03-30T08:04:12.257Z,934.26
2019-03-30T08:05:12.213Z,934.27
2019-03-30T08:06:12.162Z,934.26
2019-03-30T08:07:12.107Z,934.28
2019-03-30T08:08:12.051Z,934.32
2019-03-30T08:09:12.023Z,934.33
2019-03-30T08:10:11.970Z,934.39
2019-03-30T08:11:14.369Z,934.39
2019-03-30T08:12:11.872Z,934.35
2019-03-30T08:13:11.818Z,934.31
2019-03-30T08:14:11.782Z,934.38
2019-03-30T08:15:11.735Z,934.36
2019-03-30T08:16:11.675Z,934.40
2019-03-30T08:17:11.650Z,934.38
2019-03-30T08:18:11.590Z,934.37
2019-03-30T08:19:11.547Z,934.39
2019-03-30T08:20:11.500Z,934.39
2019-03-30T08:21:11.441Z,934.41
2019-03-30T08:22:11.415Z,934.37
2019-03-30T08:23:11.368Z,934.36
2019-03-30T08:24:11.308Z,934.39
2019-03-30T08:25:11.253Z,934.38
2019-03-30T08:26:11.206Z,934.38
2019-03-30T08:27:11.169Z,934.36
2019-03-30T08:28:11.126Z,934.40
2019-03-30T08:29:11.078Z,934.37
2019-03-30T08:30:11.027Z,934.41
2019-03-30T08:31:10.979Z,934.38
2019-03-30T08:32:10.946Z,934.43
2019-03-30T08:33:10.877Z,934.40
2019-03-30T08:34:10.843Z,934.39
2019-03-30T08:35:10.783Z,934.43
2019-03-30T08:36:10.748Z,934.43
2019-03-30T08:37:10.702Z,934.43
2019-03-30T08:38:10.651Z,934.42
2019-03-30T08:39:10.616Z,934.43
2019-03-30T08:40:10.773Z,934.48
2019-03-30T08:41:10.501Z,934.46
2019-03-30T08:42:10.475Z,934.45
2019-03-30T08:43:10.420Z,934.44
2019-03-30T08:44:10.368Z,934.49
2019-03-30T08:45:10.313Z,934.50
2019-03-30T08:46:10.266Z,934.47
2019-03-30T08:47:10.227Z,934.55
2019-03-30T08:48:10.172Z,934.51
2019-03-30T08:49:10.125Z,934.53
2019-03-30T08:50:10.092Z,934.51
2019-03-30T08:51:10.032Z,934.53
2019-03-30T08:52:09.999Z,934.54
2019-03-30T08:53:09.937Z,934.53
2019-03-30T08:54:09.899Z,934.59
2019-03-30T08:55:09.865Z,934.55
2019-03-30T08:56:09.818Z,934.53
2019-03-30T08:57:09.750Z,934.62
2019-03-30T08:58:09.715Z,934.59
2019-03-30T08:59:09.664Z,934.59
2019-03-30T09:00:09.627Z,934.61
2019-03-30T09:01:09.561Z,934.65
2019-03-30T09:02:09.536Z,934.65
2019-03-30T09:03:09.483Z,934.69
2019-03-30T09:04:09.420Z,934.71
2019-03-30T09:05:09.387Z,934.75
2019-03-30T09:06:09.342Z,934.74
2019-03-30T09:07:09.301Z,934.72
2019-03-30T09:08:09.250Z,934.75
2019-03-30T09:09:09.199Z,934.75
2019-03-30T09:10:09.341Z,934.80
2019-03-30T09:11:09.092Z,934.79
2019-03-30T09:12:09.058Z,934.81
2019-03-30T09:13:09.020Z,934.86
2019-03-30T09:14:08.973Z,934.88
2019-03-30T09:15:08.917Z,934.88
2019-03-30T09:16:08.871Z,934.90
2019-03-30T09:17:08.899Z,934.91
2019-03-30T09:18:08.785Z,934.92
2019-03-30T09:19:08.731Z,934.93
2019-03-30T09:20:08.669Z,934.95
2019-03-30T09:21:08.623Z,934.96
2019-03-30T09:22:08.578Z,934.93
2019-03-30T09:23:08.578Z,934.96
2019-03-30T09:24:10.264Z,934.97
2019-03-30T09:25:08.436Z,934.95
2019-03-30T09:26:08.402Z,934.95
2019-03-30T09:27:08.344Z,934.94
2019-03-30T09:28:08.296Z,934.93
2019-03-30T09:29:08.256Z,934.91
2019-03-30T09:30:08.222Z,934.93
2019-03-30T09:31:08.179Z,934.97
2019-03-30T09:32:14.601Z,934.96
2019-03-30T09:33:08.069Z,934.98
2019-03-30T09:34:08.035Z,934.99
2019-03-30T09:35:07.989Z,934.97
2019-03-30T09:36:07.949Z,934.98
2019-03-30T09:37:07.885Z,935.03
2019-03-30T09:38:07.847Z,934.97
2019-03-30T09:39:07.800Z,934.99
2019-03-30T09:40:07.753Z,935.02
2019-03-30T09:41:07.698Z,935.04
2019-03-30T09:42:07.659Z,935.03
2019-03-30T09:43:07.615Z,935.08
2019-03-30T09:44:07.566Z,935.07
2019-03-30T09:45:07.519Z,935.07
2019-03-30T09:46:07.464Z,935.10
2019-03-30T09:47:07.413Z,935.10
2019-03-30T09:48:07.374Z,935.12
2019-03-30T09:49:07.332Z,935.11
2019-03-30T09:50:07.264Z,935.09
2019-03-30T09:51:07.218Z,935.06
2019-03-30T09:52:07.184Z,935.09
2019-03-30T09:53:07.134Z,935.07
2019-03-30T09:54:07.090Z,935.10
2019-03-30T09:55:07.055Z,935.09
2019-03-30T09:56:07.006Z,935.08
2019-03-30T09:57:06.942Z,935.10
2019-03-30T09:58:06.891Z,935.09
2019-03-30T09:59:06.853Z,935.10
2019-03-30T10:00:06.811Z,935.11
2019-03-30T10:01:06.766Z,935.15
2019-03-30T10:02:06.728Z,935.13
2019-03-30T10:03:06.675Z,935.18
2019-03-30T10:04:06.611Z,935.15
2019-03-30T10:05:06.575Z,935.17
2019-03-30T10:06:06.527Z,935.17
2019-03-30T10:07:06.476Z,935.17
2019-03-30T10:08:06.434Z,935.20
2019-03-30T10:09:06.402Z,935.21
2019-03-30T10:10:06.348Z,935.24
2019-03-30T10:11:06.287Z,935.26
2019-03-30T10:12:06.239Z,935.24
2019-03-30T10:13:06.193Z,935.28
2019-03-30T10:14:06.147Z,935.29
2019-03-30T10:15:06.124Z,935.26
2019-03-30T10:16:06.079Z,935.34
2019-03-30T10:17:06.030Z,935.32
2019-03-30T10:18:05.925Z,935.29
2019-03-30T10:19:05.925Z,935.28
2019-03-30T10:20:05.883Z,935.30
2019-03-30T10:21:05.848Z,935.37
2019-03-30T10:22:05.807Z,935.35
2019-03-30T10:23:05.745Z,935.34
2019-03-30T10:24:05.709Z,935.36
2019-03-30T10:25:05.642Z,935.36
2019-03-30T10:26:05.618Z,935.40
2019-03-30T10:27:05.559Z,935.43
2019-03-30T10:28:05.514Z,935.40
2019-03-30T10:29:05.460Z,935.35
2019-03-30T10:30:05.428Z,935.39
2019-03-30T10:31:05.377Z,935.40
2019-03-30T10:32:05.345Z,935.46
2019-03-30T10:33:05.299Z,935.50
2019-03-30T10:34:05.233Z,935.50
2019-03-30T10:35:05.209Z,935.56
2019-03-30T10:36:05.142Z,935.51
2019-03-30T10:37:05.119Z,935.54
2019-03-30T10:38:05.077Z,935.52
2019-03-30T10:39:05.023Z,935.58
2019-03-30T10:40:04.975Z,935.57
2019-03-30T10:41:04.937Z,935.58
2019-03-30T10:42:04.895Z,935.59
2019-03-30T10:43:04.861Z,935.64
2019-03-30T10:44:04.810Z,935.65
2019-03-30T10:45:04.836Z,935.66
2019-03-30T10:46:04.724Z,935.61
2019-03-30T10:47:04.700Z,935.68
2019-03-30T10:48:04.647Z,935.69
2019-03-30T10:49:04.608Z,935.71
2019-03-30T10:50:04.577Z,935.67
2019-03-30T10:51:04.530Z,935.69
2019-03-30T10:52:04.488Z,935.70
2019-03-30T10:53:04.464Z,935.72
2019-03-30T10:54:04.403Z,935.74
2019-03-30T10:55:04.387Z,935.75
2019-03-30T10:56:04.353Z,935.76
2019-03-30T10:57:04.306Z,935.77
2019-03-30T10:58:04.265Z,935.82
2019-03-30T10:59:04.218Z,935.79
2019-03-30T11:00:04.191Z,935.82
2019-03-30T11:01:04.162Z,935.78
2019-03-30T11:02:04.136Z,935.80
2019-03-30T11:03:04.084Z,935.79
2019-03-30T11:04:04.061Z,935.78
2019-03-30T11:05:04.025Z,935.82
2019-03-30T11:06:03.981Z,935.78
2019-03-30T11:07:03.949Z,935.82
2019-03-30T11:08:03.907Z,935.83
2019-03-30T11:09:03.863Z,935.83
2019-03-30T11:10:03.790Z,935.85
2019-03-30T11:11:03.839Z,935.85
2019-03-30T11:12:03.784Z,935.80
2019-03-30T11:13:03.729Z,935.85
2019-03-30T11:14:03.697Z,935.82
2019-03-30T11:15:03.659Z,935.86
2019-03-30T11:16:03.630Z,935.82
2019-03-30T11:17:03.581Z,935.85
2019-03-30T11:18:03.550Z,935.80
2019-03-30T11:19:03.516Z,935.81
2019-03-30T11:20:03.465Z,935.83
2019-03-30T11:21:03.425Z,935.86
2019-03-30T11:22:03.616Z,935.86
2019-03-30T11:23:03.349Z,935.82
2019-03-30T11:24:06.505Z,935.85
2019-03-30T11:25:07.822Z,935.87
2019-03-30T11:26:03.226Z,935.88
2019-03-30T11:27:03.186Z,935.83
2019-03-30T11:28:03.144Z,935.85
2019-03-30T11:29:03.089Z,935.88
2019-03-30T11:30:03.060Z,935.83
2019-03-30T11:31:05.435Z,935.86
2019-03-30T11:32:02.990Z,935.86
2019-03-30T11:33:02.920Z,935.85
2019-03-30T11:34:02.893Z,935.84
2019-03-30T11:35:02.852Z,935.82
2019-03-30T11:36:02.793Z,935.83
2019-03-30T11:37:02.771Z,935.84
2019-03-30T11:38:02.706Z,935.83
2019-03-30T11:39:02.663Z,935.87
2019-03-30T11:40:02.641Z,935.88
2019-03-30T11:41:02.585Z,935.84
2019-03-30T11:42:02.533Z,935.85
2019-03-30T11:43:02.502Z,935.85
2019-03-30T11:44:02.447Z,935.81
2019-03-30T11:45:02.417Z,935.85
2019-03-30T11:46:02.369Z,935.89
2019-03-30T11:47:02.342Z,935.88
2019-03-30T11:48:02.286Z,935.90
2019-03-30T11:49:02.243Z,935.92
2019-03-30T11:50:02.206Z,935.89
2019-03-30T11:51:02.154Z,935.91
2019-03-30T11:52:02.110Z,935.89
2019-03-30T11:53:02.068Z,935.93
2019-03-30T11:54:02.018Z,935.98
2019-03-30T11:55:02.005Z,935.97
2019-03-30T11:56:01.922Z,935.96
2019-03-30T11:57:01.891Z,935.97
2019-03-30T11:58:01.858Z,935.97
2019-03-30T11:59:01.790Z,936.05
2019-03-30T12:00:01.759Z,935.99
2019-03-30T12:01:01.702Z,936.02
2019-03-30T12:02:01.668Z,936.08
2019-03-30T12:03:01.624Z,936.06
2019-03-30T12:04:01.572Z,936.04
2019-03-30T12:05:01.540Z,936.03
2019-03-30T12:06:01.504Z,936.06
2019-03-30T12:07:01.459Z,936.02
2019-03-30T12:08:01.403Z,936.09
2019-03-30T12:09:01.363Z,936.07
2019-03-30T12:10:01.306Z,936.09
2019-03-30T12:11:01.283Z,936.18
2019-03-30T12:12:01.239Z,936.05
2019-03-30T12:13:01.187Z,936.08
2019-03-30T12:14:01.142Z,936.10
2019-03-30T12:15:01.086Z,936.06
2019-03-30T12:16:01.063Z,936.06
2019-03-30T12:17:01.006Z,936.02
2019-03-30T12:18:00.953Z,936.05
2019-03-30T12:19:00.933Z,936.01
2019-03-30T12:20:00.887Z,936.01
2019-03-30T12:21:00.821Z,936.06
2019-03-30T12:22:00.777Z,936.04
2019-03-30T12:23:00.751Z,936.01
2019-03-30T12:24:00.688Z,936.03
2019-03-30T12:25:00.666Z,936.05
2019-03-30T12:26:00.608Z,936.01
2019-03-30T12:27:00.565Z,935.97
2019-03-30T12:28:00.536Z,935.97